Карточка аэропорта UOOO

Внимание!
Информация на этой странице в стадии наполнения.
Если вы не увидели какой-то информации, или заметили неточность - пожалуйста сообщите нам!
Спасибо!
Команда RU-STAFF
Название аэропортаАлыкель
Название аэропорта (англ.)Alykel
Превышение574 ft. (175 m.)
Координаты69°19.02', 87°19.02'
Высота перехода1200m
Эшелон переходаQFE>744:FL60;744>QFE>717:FL70;717>QFE:FL80
Коды ответчика5401-5427
Зона ОрВДКрасноярск РПИ (UNKL)
Данные METARUOOO 300500Z 30003MPS 0250 R01/0300N -SHSN FZFG VV002 M00/M00 Q1025 R01/590232 NOSIG RMK QFE754/1006
Проноз погоды (TAF)UOOO 300407Z 3004/0103 30003G08MPS 0500 -SHSN FZFG BKN003 BKN013CB TEMPO 3004/3006 1100 -SHSN BR BECMG 3006/3008 6000 NSW BKN016CB TEMPO 3008/0103 0700 -SHSN FZFG VV003
NOTAMshow/hide NOTAM
AWOS   TABLE

Информация о ВПП

ВПП Длина ВПП (м.) Покрытие Курс ВПП Частота ILS
013430Бетон13109.5
193430Бетон193110.3

Диспетчерские позиции

Позывной Наименование органа УВД Частота
UOOO_APPНорильск - Круг120.400
UOOO_GNDНорильск - Руление121.700
UOOO_TWRНорильск - Старт118.300



Спутниковое изображение